Time;durP1;ratioP1;P1;durP2;ratioP2;P2;SDS_P1;SDS_P2;PMS_P1;PMS_P2;Temp;Humidity;BMP_temperature;BMP_pressure;BME280_temperature;BME280_humidity;BME280_pressure;Samples;Min_cycle;Max_cycle;Signal;HPM_P1;HPM_P2
2022/12/12 05:02:24;;;;;;;44.03;29.20;;;-1.10;99.90;;;;;;6250466;22;20458;-64
2022/12/12 05:04:55;;;;;;;40.93;28.67;;;-1.20;99.90;;;;;;6252048;23;20460;-66
2022/12/12 05:07:30;;;;;;;37.13;27.00;;;-1.20;99.90;;;;;;6250490;23;20446;-66
2022/12/12 05:09:58;;;;;;;34.50;26.23;;;-1.20;99.90;;;;;;6248836;23;20398;-66
2022/12/12 05:12:25;;;;;;;31.77;25.47;;;-1.20;99.90;;;;;;6219799;23;20435;-67
2022/12/12 05:14:51;;;;;;;34.03;26.33;;;-1.20;99.90;;;;;;6216967;23;20466;-67
2022/12/12 05:17:27;;;;;;;33.50;25.30;;;-1.20;99.90;;;;;;6216219;23;20903;-67
2022/12/12 05:19:54;;;;;;;37.83;27.83;;;-1.20;99.90;;;;;;6216336;23;20403;-67
2022/12/12 05:22:20;;;;;;;38.20;29.00;;;-1.20;99.90;;;;;;6216959;23;20719;-67
2022/12/12 05:24:47;;;;;;;35.17;27.67;;;-1.10;99.90;;;;;;6216308;23;20808;-64
2022/12/12 05:27:13;;;;;;;34.10;27.30;;;-1.20;99.90;;;;;;6216482;23;20416;-63
2022/12/12 05:29:40;;;;;;;36.80;27.43;;;-1.20;99.90;;;;;;6217063;23;20438;-63
2022/12/12 05:32:07;;;;;;;37.90;28.87;;;-1.20;99.90;;;;;;6218169;23;20784;-63
2022/12/12 05:34:35;;;;;;;33.93;26.60;;;-1.10;99.90;;;;;;6217963;23;20783;-66
2022/12/12 05:37:01;;;;;;;34.97;26.73;;;-1.00;99.90;;;;;;6217079;23;20785;-66
2022/12/12 05:39:28;;;;;;;34.37;27.47;;;-1.00;99.90;;;;;;6216298;23;20418;-65
2022/12/12 05:41:55;;;;;;;34.43;27.50;;;-1.00;99.90;;;;;;6216833;23;20432;-65
2022/12/12 05:44:21;;;;;;;33.17;27.33;;;-0.90;99.90;;;;;;6215776;23;20486;-65
2022/12/12 05:46:48;;;;;;;34.67;26.60;;;-0.90;99.90;;;;;;6216420;23;20412;-67
2022/12/12 05:49:15;;;;;;;33.63;25.80;;;-0.90;99.90;;;;;;6216374;23;20419;-67
2022/12/12 05:51:43;;;;;;;34.77;27.87;;;-0.80;99.90;;;;;;6216826;23;20435;-65
2022/12/12 05:54:09;;;;;;;33.50;27.77;;;-0.80;99.90;;;;;;6217997;23;20465;-65
2022/12/12 05:56:36;;;;;;;34.10;26.60;;;-0.70;99.90;;;;;;6218074;23;20416;-65
2022/12/12 05:59:03;;;;;;;34.13;27.30;;;-0.70;99.90;;;;;;6217936;23;20779;-65
2022/12/12 06:01:30;;;;;;;34.77;26.77;;;-0.70;99.90;;;;;;6218472;23;20823;-63
2022/12/12 06:03:56;;;;;;;32.13;26.30;;;-0.70;99.90;;;;;;6217776;23;20817;-63
2022/12/12 06:06:23;;;;;;;32.17;24.93;;;-0.80;99.90;;;;;;6218165;23;20783;-63
2022/12/12 06:08:51;;;;;;;34.27;26.30;;;-0.70;99.90;;;;;;6217726;23;20861;-63
2022/12/12 06:11:18;;;;;;;32.07;25.93;;;-0.80;99.90;;;;;;6218023;23;20432;-63
2022/12/12 06:13:45;;;;;;;34.57;25.50;;;-0.80;99.90;;;;;;6217955;23;20408;-63
2022/12/12 06:16:15;;;;;;;33.43;25.43;;;-0.80;99.90;;;;;;6218183;23;20412;-66
2022/12/12 06:18:42;;;;;;;34.00;27.10;;;-0.90;99.90;;;;;;6218509;23;20400;-66
2022/12/12 06:21:10;;;;;;;34.73;25.07;;;-0.90;99.90;;;;;;6218259;23;20489;-66
2022/12/12 06:23:38;;;;;;;34.40;27.87;;;-0.90;99.90;;;;;;6218426;23;20439;-68
2022/12/12 06:26:07;;;;;;;37.40;27.57;;;-1.00;99.90;;;;;;6217663;23;20482;-66
2022/12/12 06:28:34;;;;;;;35.00;27.07;;;-0.90;99.90;;;;;;6217685;23;20396;-66
2022/12/12 06:31:02;;;;;;;34.30;26.23;;;-1.00;99.90;;;;;;6217364;23;20431;-66
2022/12/12 06:33:30;;;;;;;37.93;27.90;;;-1.00;99.90;;;;;;6217088;23;20963;-66
2022/12/12 06:35:59;;;;;;;32.30;25.30;;;-1.00;99.90;;;;;;6217301;23;20419;-66
2022/12/12 06:38:25;;;;;;;35.70;27.13;;;-1.00;99.90;;;;;;6217627;23;20462;-66
2022/12/12 06:40:52;;;;;;;35.63;27.97;;;-1.00;99.90;;;;;;6217309;23;20490;-65
2022/12/12 06:43:20;;;;;;;33.63;26.57;;;-1.00;99.90;;;;;;6218198;23;20490;-65
2022/12/12 06:45:47;;;;;;;35.00;26.60;;;-1.00;99.90;;;;;;6217408;23;20511;-65
2022/12/12 06:48:13;;;;;;;33.30;26.73;;;-1.00;99.90;;;;;;6217404;23;20418;-65
2022/12/12 06:50:41;;;;;;;32.97;27.30;;;-0.90;99.90;;;;;;6217666;23;20439;-65
2022/12/12 06:53:07;;;;;;;34.43;26.23;;;-0.90;99.90;;;;;;6217385;23;20794;-65
2022/12/12 06:55:34;;;;;;;34.13;27.77;;;-0.90;99.90;;;;;;6217450;23;20412;-65
2022/12/12 06:58:01;;;;;;;33.33;26.53;;;-0.90;99.90;;;;;;6218969;23;20435;-66
2022/12/12 07:00:29;;;;;;;36.27;27.50;;;-0.90;99.90;;;;;;6218636;23;20884;-64
2022/12/12 07:02:56;;;;;;;36.50;28.90;;;-0.90;99.90;;;;;;6218673;23;20396;-64
2022/12/12 07:05:22;;;;;;;38.67;28.77;;;-1.00;99.90;;;;;;6217281;23;20435;-63
2022/12/12 07:07:49;;;;;;;39.07;29.03;;;-1.00;99.90;;;;;;6217031;23;20923;-64
2022/12/12 07:10:17;;;;;;;38.53;29.10;;;-1.00;99.90;;;;;;6217341;23;20427;-64
2022/12/12 07:12:44;;;;;;;36.47;28.20;;;-1.10;99.90;;;;;;6217480;23;20412;-63
2022/12/12 07:15:11;;;;;;;39.50;29.63;;;-1.10;99.90;;;;;;6217402;23;20462;-64
2022/12/12 07:17:39;;;;;;;36.43;29.57;;;-1.20;99.90;;;;;;6217142;23;20443;-64
2022/12/12 07:20:08;;;;;;;38.90;30.07;;;-1.20;99.90;;;;;;6217299;23;20412;-63
2022/12/12 07:22:35;;;;;;;44.50;31.80;;;-1.30;99.90;;;;;;6217225;23;20438;-63
2022/12/12 07:25:02;;;;;;;40.07;30.30;;;-1.10;99.90;;;;;;6217144;23;20432;-63
2022/12/12 07:27:28;;;;;;;40.13;29.83;;;-0.80;99.90;;;;;;6216955;23;20959;-63
2022/12/12 07:29:55;;;;;;;41.43;31.00;;;-0.80;99.90;;;;;;6216877;23;20916;-65
2022/12/12 07:32:22;;;;;;;42.07;30.20;;;-0.90;99.90;;;;;;6217227;23;20531;-66
2022/12/12 07:34:49;;;;;;;43.30;31.87;;;-0.90;99.90;;;;;;6217640;23;20404;-66
2022/12/12 07:37:16;;;;;;;41.70;30.77;;;-0.90;99.90;;;;;;6217387;23;20459;-66
2022/12/12 07:39:43;;;;;;;37.43;30.10;;;-0.90;99.90;;;;;;6217071;23;20966;-66
2022/12/12 07:42:10;;;;;;;40.57;30.10;;;-0.90;99.90;;;;;;6217204;23;20540;-66
2022/12/12 07:44:36;;;;;;;37.07;29.07;;;-1.00;99.90;;;;;;6217888;23;20431;-66
2022/12/12 07:47:03;;;;;;;42.47;30.47;;;-1.10;99.90;;;;;;6217500;23;20415;-66
2022/12/12 07:49:30;;;;;;;42.60;30.83;;;-1.10;99.90;;;;;;6217403;23;20465;-66
2022/12/12 07:51:58;;;;;;;37.77;30.27;;;-1.20;99.90;;;;;;6217082;23;20466;-66
2022/12/12 07:54:24;;;;;;;39.10;29.97;;;-1.20;99.90;;;;;;6217076;23;20412;-67
2022/12/12 07:56:51;;;;;;;38.37;29.50;;;-1.10;99.90;;;;;;6217537;23;20422;-62
2022/12/12 07:59:18;;;;;;;37.83;30.27;;;-1.20;99.90;;;;;;6217546;23;20420;-64
2022/12/12 08:01:44;;;;;;;41.00;31.20;;;-1.20;99.90;;;;;;6217448;23;20826;-63
2022/12/12 08:04:11;;;;;;;41.10;31.17;;;-1.20;99.90;;;;;;6219136;23;20493;-63
2022/12/12 08:06:38;;;;;;;38.00;29.57;;;-1.20;99.90;;;;;;6231916;23;20411;-64
2022/12/12 08:09:06;;;;;;;43.47;31.10;;;-1.20;99.90;;;;;;6217759;23;20794;-63
2022/12/12 08:11:32;;;;;;;35.80;30.33;;;-1.00;99.90;;;;;;6217575;23;20478;-63
2022/12/12 08:13:59;;;;;;;42.23;31.63;;;-0.90;99.90;;;;;;6216737;23;20466;-63
2022/12/12 08:16:27;;;;;;;38.17;30.27;;;-0.80;99.90;;;;;;6216887;23;20412;-63
2022/12/12 08:18:55;;;;;;;37.63;30.70;;;-0.80;99.90;;;;;;6216754;23;20744;-63
2022/12/12 08:21:22;;;;;;;36.10;31.07;;;-0.80;99.90;;;;;;6216547;23;20808;-63
2022/12/12 08:23:49;;;;;;;40.90;31.97;;;-0.70;99.90;;;;;;6216699;23;20760;-63
2022/12/12 08:26:18;;;;;;;39.73;30.90;;;-0.70;99.90;;;;;;6216520;23;20493;-63
2022/12/12 08:28:47;;;;;;;39.43;29.67;;;-0.70;99.90;;;;;;6216792;23;20466;-64
2022/12/12 08:31:15;;;;;;;42.33;32.03;;;-0.60;99.90;;;;;;6217250;23;20464;-64
2022/12/12 08:33:42;;;;;;;41.23;29.87;;;-0.70;99.90;;;;;;6216171;23;20909;-64
2022/12/12 08:36:14;;;;;;;40.70;31.83;;;-0.70;99.90;;;;;;6216336;23;20461;-64
2022/12/12 08:38:41;;;;;;;37.43;30.23;;;-0.70;99.90;;;;;;6216368;23;20892;-64
2022/12/12 08:41:08;;;;;;;47.13;34.90;;;-0.80;99.90;;;;;;6216772;23;20435;-64
2022/12/12 08:43:36;;;;;;;41.37;31.73;;;-0.80;99.90;;;;;;6216761;23;20412;-64
2022/12/12 08:46:05;;;;;;;40.23;30.80;;;-0.80;99.90;;;;;;6217149;23;20475;-64
2022/12/12 08:48:32;;;;;;;38.93;30.73;;;-0.80;99.90;;;;;;6217564;23;20481;-63
2022/12/12 08:50:59;;;;;;;43.63;31.40;;;-0.80;99.90;;;;;;6217581;23;20514;-63
2022/12/12 08:53:26;;;;;;;37.23;30.17;;;-0.70;99.90;;;;;;6217882;23;20498;-64
2022/12/12 08:55:54;;;;;;;44.73;32.27;;;-0.60;99.90;;;;;;6217550;23;20408;-63
2022/12/12 08:58:21;;;;;;;40.53;30.23;;;-0.50;99.90;;;;;;6217161;23;20454;-63
2022/12/12 09:00:49;;;;;;;38.87;31.10;;;-0.60;99.90;;;;;;6216215;23;20514;-64
2022/12/12 09:03:16;;;;;;;35.67;29.73;;;-0.50;99.90;;;;;;6216499;23;20403;-63
2022/12/12 09:05:43;;;;;;;37.50;30.83;;;-0.40;99.90;;;;;;6216581;23;20944;-64
2022/12/12 09:08:10;;;;;;;39.63;30.43;;;-0.40;99.90;;;;;;6216724;23;20447;-64
2022/12/12 09:10:37;;;;;;;37.83;31.60;;;-0.30;99.90;;;;;;6216777;23;20432;-64
2022/12/12 09:13:04;;;;;;;41.67;31.07;;;-0.10;99.90;;;;;;6217120;23;20411;-63
2022/12/12 09:15:30;;;;;;;42.57;31.90;;;-0.10;99.90;;;;;;6222690;23;20885;-64
2022/12/12 09:17:58;;;;;;;49.30;32.10;;;-0.10;99.90;;;;;;6221518;23;20431;-64
2022/12/12 09:20:25;;;;;;;39.13;32.07;;;-0.20;99.90;;;;;;6218266;23;20442;-66
2022/12/12 09:22:52;;;;;;;43.10;32.30;;;-0.10;99.90;;;;;;6218250;23;20462;-68
2022/12/12 09:25:20;;;;;;;40.37;33.27;;;-0.10;99.90;;;;;;6219266;23;20486;-68
2022/12/12 09:27:47;;;;;;;39.97;30.60;;;0.00;99.90;;;;;;6219883;23;20412;-68
2022/12/12 09:30:14;;;;;;;40.37;30.47;;;0.00;99.90;;;;;;6218697;23;20897;-67
2022/12/12 09:32:44;;;;;;;35.03;29.83;;;0.10;99.90;;;;;;6219446;23;20416;-67
2022/12/12 09:35:12;;;;;;;37.83;29.73;;;0.20;99.90;;;;;;6218007;23;20411;-67
2022/12/12 09:37:38;;;;;;;36.63;30.83;;;0.30;99.90;;;;;;6218217;23;20418;-68
2022/12/12 09:40:06;;;;;;;39.37;29.90;;;0.40;99.90;;;;;;6218153;23;20944;-68
2022/12/12 09:42:33;;;;;;;36.67;30.30;;;0.50;99.90;;;;;;6218154;23;20803;-71
2022/12/12 09:45:04;;;;;;;33.83;29.70;;;0.60;99.90;;;;;;6217849;23;20487;-67
2022/12/12 09:47:36;;;;;;;35.20;30.57;;;0.80;99.90;;;;;;6217750;23;20416;-67
2022/12/12 09:50:14;;;;;;;35.93;30.63;;;0.90;99.90;;;;;;6218370;23;20716;-68
2022/12/12 09:52:42;;;;;;;33.40;29.73;;;1.00;99.90;;;;;;6218088;23;20454;-68
2022/12/12 09:55:26;;;;;;;37.43;31.20;;;1.10;99.90;;;;;;6219561;23;20434;-67
2022/12/12 09:58:00;;;;;;;34.53;29.33;;;1.20;99.90;;;;;;6218998;23;20454;-67
2022/12/12 10:00:29;;;;;;;34.10;28.23;;;1.20;99.90;;;;;;6218876;23;20396;-67
2022/12/12 10:03:15;;;;;;;35.43;28.80;;;1.20;99.90;;;;;;6219228;23;20396;-67
2022/12/12 10:05:49;;;;;;;39.80;30.53;;;1.20;99.90;;;;;;6218384;23;20423;-67
2022/12/12 10:08:22;;;;;;;36.87;30.30;;;1.10;99.90;;;;;;6218045;23;20395;-67
2022/12/12 10:10:52;;;;;;;35.70;29.37;;;1.00;99.90;;;;;;6217985;23;20664;-67
2022/12/12 10:13:22;;;;;;;36.40;30.00;;;1.00;99.90;;;;;;6217749;23;20411;-67
2022/12/12 10:15:52;;;;;;;35.70;30.00;;;1.00;99.90;;;;;;6217755;23;20412;-67
2022/12/12 10:18:25;;;;;;;36.43;30.90;;;1.00;99.90;;;;;;6217532;23;20508;-67
2022/12/12 10:20:56;;;;;;;33.00;29.40;;;1.00;99.90;;;;;;6217630;23;20436;-66
2022/12/12 10:23:30;;;;;;;32.40;28.90;;;1.00;99.90;;;;;;6217431;23;20773;-67
2022/12/12 10:25:59;;;;;;;34.33;28.47;;;1.10;99.90;;;;;;6217979;23;20423;-67
2022/12/12 10:28:27;;;;;;;32.10;27.20;;;1.70;99.90;;;;;;6217416;23;20780;-67
2022/12/12 10:31:08;;;;;;;30.27;26.70;;;2.50;99.90;;;;;;6217572;23;20454;-67
2022/12/12 10:33:47;;;;;;;30.60;25.83;;;3.60;99.90;;;;;;6217682;23;20396;-67
2022/12/12 10:36:24;;;;;;;31.40;25.60;;;4.60;99.90;;;;;;6218177;23;20392;-67
2022/12/12 10:39:03;;;;;;;27.67;24.70;;;5.40;99.90;;;;;;6218152;23;20402;-67
2022/12/12 10:41:41;;;;;;;27.73;24.33;;;6.10;99.90;;;;;;6217318;23;20483;-68
2022/12/12 10:44:17;;;;;;;30.87;26.17;;;6.60;99.90;;;;;;6218183;23;20422;-68
2022/12/12 10:46:53;;;;;;;28.93;25.83;;;6.60;99.90;;;;;;6217867;23;20461;-67
2022/12/12 10:49:22;;;;;;;29.23;25.07;;;5.80;99.90;;;;;;6217893;23;20399;-67
2022/12/12 10:51:52;;;;;;;28.13;25.13;;;5.40;99.90;;;;;;6217983;23;20799;-67
2022/12/12 10:54:22;;;;;;;28.37;24.97;;;4.80;99.90;;;;;;6217677;23;20792;-67
2022/12/12 10:57:06;;;;;;;29.63;25.47;;;4.40;99.90;;;;;;6217712;23;20580;-67
2022/12/12 10:59:40;;;;;;;33.20;27.90;;;4.00;99.90;;;;;;6217654;23;20416;-67
2022/12/12 11:02:35;;;;;;;34.30;27.47;;;3.50;99.90;;;;;;6216983;23;20447;-67
2022/12/12 11:05:19;;;;;;;34.30;28.40;;;3.20;99.90;;;;;;6216939;23;20451;-67
2022/12/12 11:07:49;;;;;;;34.67;27.17;;;3.00;99.90;;;;;;6217608;23;20454;-64
2022/12/12 11:10:26;;;;;;;33.90;28.87;;;2.80;99.90;;;;;;6217319;23;20401;-65
2022/12/12 11:12:58;;;;;;;31.70;27.97;;;2.60;99.90;;;;;;6218301;23;20400;-65
2022/12/12 11:15:32;;;;;;;33.73;27.17;;;2.50;99.90;;;;;;6217188;23;20408;-65
2022/12/12 11:17:59;;;;;;;36.10;29.30;;;2.40;99.90;;;;;;6217317;23;20702;-71
2022/12/12 11:20:26;;;;;;;33.40;28.63;;;2.40;99.90;;;;;;6217207;23;20412;-64
2022/12/12 11:22:56;;;;;;;36.07;28.80;;;2.30;99.90;;;;;;6217268;23;20490;-64
2022/12/12 11:25:25;;;;;;;34.17;29.07;;;2.10;99.90;;;;;;6217563;23;20463;-64
2022/12/12 11:27:52;;;;;;;31.60;28.10;;;2.00;99.90;;;;;;6216800;23;20897;-63
2022/12/12 11:30:23;;;;;;;33.20;28.33;;;1.90;99.90;;;;;;6217162;23;20462;-64
2022/12/12 11:32:54;;;;;;;32.30;28.03;;;1.80;99.90;;;;;;6217310;23;20455;-63
2022/12/12 11:35:24;;;;;;;32.87;26.97;;;1.90;99.90;;;;;;6216937;23;20865;-63
2022/12/12 11:37:55;;;;;;;32.93;27.50;;;1.90;99.90;;;;;;6217152;23;20407;-63
2022/12/12 11:40:25;;;;;;;30.47;27.27;;;2.00;99.90;;;;;;6217351;23;20392;-64
2022/12/12 11:42:52;;;;;;;37.50;28.00;;;2.10;99.90;;;;;;6217308;23;20416;-63
2022/12/12 11:45:23;;;;;;;29.70;26.47;;;2.20;99.90;;;;;;6217336;23;20431;-63
2022/12/12 11:47:50;;;;;;;31.17;27.77;;;2.30;99.90;;;;;;6217061;23;20412;-64
2022/12/12 11:50:21;;;;;;;33.27;28.37;;;2.20;99.90;;;;;;6216956;23;20415;-64
2022/12/12 11:52:48;;;;;;;34.10;29.33;;;2.20;99.90;;;;;;6217046;23;20396;-64
2022/12/12 11:55:18;;;;;;;33.50;28.13;;;2.20;99.90;;;;;;6217237;23;20482;-65
2022/12/12 11:58:03;;;;;;;32.40;27.53;;;2.20;99.90;;;;;;6216887;23;20415;-67
2022/12/12 12:00:39;;;;;;;33.00;29.37;;;2.30;99.90;;;;;;6216894;23;20396;-67
2022/12/12 12:03:28;;;;;;;33.00;28.40;;;2.40;99.90;;;;;;6217028;23;20400;-67
2022/12/12 12:06:07;;;;;;;36.30;29.27;;;2.30;99.90;;;;;;6216974;23;20420;-67
2022/12/12 12:08:47;;;;;;;35.10;29.47;;;2.30;99.90;;;;;;6216725;23;20935;-64
2022/12/12 12:11:25;;;;;;;32.73;26.90;;;2.20;99.90;;;;;;6216956;23;20781;-65
2022/12/12 12:14:13;;;;;;;34.70;27.47;;;2.20;99.90;;;;;;6216947;23;20504;-67
2022/12/12 12:16:48;;;;;;;33.80;28.20;;;2.20;99.90;;;;;;6216892;23;20392;-66
2022/12/12 12:19:21;;;;;;;31.87;27.60;;;2.40;99.90;;;;;;6216707;23;20499;-66
2022/12/12 12:22:00;;;;;;;29.47;26.27;;;2.40;99.90;;;;;;6216892;23;20482;-64
2022/12/12 12:25:01;;;;;;;34.47;26.87;;;2.60;99.90;;;;;;6216834;23;20770;-63
2022/12/12 12:27:37;;;;;;;31.13;27.80;;;2.60;99.90;;;;;;6216715;23;20396;-62
2022/12/12 12:30:17;;;;;;;31.27;28.03;;;2.50;99.90;;;;;;6217291;23;20774;-65
2022/12/12 12:33:08;;;;;;;30.93;25.37;;;2.50;99.90;;;;;;6216104;23;20941;-65
2022/12/12 12:35:47;;;;;;;33.53;29.10;;;2.50;99.90;;;;;;6216936;23;20392;-65
2022/12/12 12:38:24;;;;;;;30.70;27.40;;;2.50;99.90;;;;;;6216758;23;20396;-64
2022/12/12 12:41:10;;;;;;;32.50;27.60;;;2.40;99.90;;;;;;6216642;23;20745;-63
2022/12/12 12:43:52;;;;;;;29.07;25.73;;;2.40;99.90;;;;;;6216492;23;20395;-63
2022/12/12 12:46:29;;;;;;;31.73;25.40;;;2.40;99.90;;;;;;6216316;23;20419;-66
2022/12/12 12:49:00;;;;;;;33.03;27.97;;;2.40;99.90;;;;;;6216202;23;20856;-66
2022/12/12 12:51:33;;;;;;;30.43;27.03;;;2.40;99.90;;;;;;6216365;23;20439;-66
2022/12/12 12:54:04;;;;;;;31.53;28.07;;;2.40;99.90;;;;;;6216369;23;20805;-66
2022/12/12 12:56:34;;;;;;;28.40;25.40;;;2.30;99.90;;;;;;6216267;23;20441;-66
2022/12/12 12:59:09;;;;;;;29.03;24.80;;;2.30;99.90;;;;;;6216101;23;20463;-66
2022/12/12 13:01:40;;;;;;;33.03;26.40;;;2.30;99.90;;;;;;6215707;23;20466;-66
2022/12/12 13:04:15;;;;;;;29.03;25.93;;;2.30;99.90;;;;;;6217368;23;20446;-66
2022/12/12 13:06:45;;;;;;;31.47;27.30;;;2.30;99.90;;;;;;6216271;23;20430;-66
2022/12/12 13:09:23;;;;;;;29.47;26.37;;;2.20;99.90;;;;;;6216325;23;20400;-66
2022/12/12 13:11:55;;;;;;;33.50;26.73;;;2.20;99.90;;;;;;6216208;23;20864;-66
2022/12/12 13:14:39;;;;;;;30.10;27.00;;;2.30;99.90;;;;;;6215683;23;20426;-67
2022/12/12 13:17:12;;;;;;;31.73;26.67;;;2.30;99.90;;;;;;6216110;23;20393;-63
2022/12/12 13:19:42;;;;;;;32.60;26.77;;;2.20;99.90;;;;;;6220576;23;20770;-63
2022/12/12 13:22:15;;;;;;;29.37;26.10;;;2.20;99.90;;;;;;6223219;23;20439;-63
2022/12/12 13:24:48;;;;;;;32.77;28.10;;;2.20;99.90;;;;;;6221690;23;20397;-63
2022/12/12 13:27:20;;;;;;;31.40;27.50;;;2.10;99.90;;;;;;6220886;23;20420;-65
2022/12/12 13:29:52;;;;;;;28.97;25.97;;;2.00;99.90;;;;;;6219351;23;20853;-66
2022/12/12 13:33:02;;;;;;;29.00;25.70;;;2.10;99.90;;;;;;6217601;23;20431;-66
2022/12/12 13:35:33;;;;;;;31.50;24.87;;;2.00;99.90;;;;;;6215842;23;20923;-66
2022/12/12 13:38:01;;;;;;;28.17;25.27;;;2.10;99.90;;;;;;6216390;23;20403;-66
2022/12/12 13:40:31;;;;;;;27.47;24.50;;;2.10;99.90;;;;;;6216224;23;20415;-63
2022/12/12 13:42:59;;;;;;;27.87;23.90;;;2.20;99.90;;;;;;6216313;23;20412;-63
2022/12/12 13:45:37;;;;;;;29.43;23.00;;;2.20;99.90;;;;;;6216467;23;20435;-64
2022/12/12 13:48:05;;;;;;;29.10;23.97;;;2.10;99.90;;;;;;6216001;23;20880;-62
2022/12/12 13:50:32;;;;;;;27.87;24.53;;;2.10;99.90;;;;;;6216611;23;20506;-63
2022/12/12 13:53:18;;;;;;;38.77;27.00;;;2.00;99.90;;;;;;6216844;23;20411;-63
2022/12/12 13:55:45;;;;;;;26.50;22.60;;;2.00;99.90;;;;;;6217385;23;20415;-62
2022/12/12 13:58:31;;;;;;;29.17;24.90;;;2.00;99.90;;;;;;6218371;23;20458;-62
2022/12/12 14:01:31;;;;;;;27.87;23.37;;;2.10;99.90;;;;;;6216061;23;20443;-60
2022/12/12 14:04:00;;;;;;;26.67;23.77;;;2.10;99.90;;;;;;6216337;23;20466;-60
2022/12/12 14:06:29;;;;;;;31.40;25.57;;;2.10;99.90;;;;;;6216400;23;20788;-61
2022/12/12 14:08:56;;;;;;;27.73;24.50;;;2.00;99.90;;;;;;6217472;23;20443;-62
2022/12/12 14:11:28;;;;;;;27.60;24.70;;;2.00;99.90;;;;;;6216163;23;20435;-62
2022/12/12 14:14:05;;;;;;;27.53;23.90;;;2.00;99.90;;;;;;6218181;23;20396;-62
2022/12/12 14:16:32;;;;;;;26.80;23.23;;;2.10;99.90;;;;;;6217784;23;20733;-62
2022/12/12 14:19:20;;;;;;;26.10;22.00;;;2.00;99.90;;;;;;6217714;23;20419;-62
2022/12/12 14:21:48;;;;;;;26.73;23.23;;;2.00;99.90;;;;;;6218631;23;20470;-61
2022/12/12 14:24:42;;;;;;;26.40;23.10;;;2.00;99.90;;;;;;6217651;23;20461;-61
2022/12/12 14:27:10;;;;;;;31.10;23.17;;;2.10;99.90;;;;;;6217639;23;20439;-61
2022/12/12 14:29:40;;;;;;;27.83;22.40;;;2.10;99.90;;;;;;6217115;23;20956;-61
2022/12/12 14:32:25;;;;;;;24.60;21.17;;;2.20;99.90;;;;;;6217680;23;20523;-61
2022/12/12 14:35:01;;;;;;;25.13;22.53;;;2.20;99.90;;;;;;6218066;23;20400;-61
2022/12/12 14:37:41;;;;;;;25.07;22.40;;;2.20;99.90;;;;;;6217706;23;20399;-60
2022/12/12 14:40:14;;;;;;;26.20;23.30;;;2.20;99.90;;;;;;6217646;23;20396;-61
2022/12/12 14:42:45;;;;;;;24.70;22.20;;;2.10;99.90;;;;;;6216940;23;20908;-61
2022/12/12 14:45:33;;;;;;;25.13;22.27;;;2.10;99.90;;;;;;6217646;23;20400;-61
2022/12/12 14:48:13;;;;;;;24.57;22.07;;;1.90;99.90;;;;;;6217665;23;20400;-60
2022/12/12 14:50:44;;;;;;;24.93;22.20;;;1.90;99.90;;;;;;6217487;23;20432;-61
2022/12/12 14:53:16;;;;;;;27.50;24.50;;;1.80;99.90;;;;;;6218361;23;20450;-60
2022/12/12 14:55:48;;;;;;;25.67;22.90;;;1.70;99.90;;;;;;6217751;23;20403;-62
2022/12/12 14:58:18;;;;;;;28.50;23.63;;;1.60;99.90;;;;;;6217961;23;20462;-61
2022/12/12 15:00:48;;;;;;;26.93;24.03;;;1.60;99.90;;;;;;6217621;23;20498;-61
2022/12/12 15:03:15;;;;;;;30.40;24.43;;;1.60;99.90;;;;;;6217953;23;20921;-61
2022/12/12 15:05:43;;;;;;;27.47;23.70;;;1.50;99.90;;;;;;6218854;23;20416;-60
2022/12/12 15:08:19;;;;;;;29.97;25.33;;;1.40;99.90;;;;;;6217809;23;20411;-63
2022/12/12 15:10:46;;;;;;;29.30;24.80;;;1.30;99.90;;;;;;6217852;23;20432;-61
2022/12/12 15:13:19;;;;;;;31.53;25.90;;;1.30;99.90;;;;;;6217888;23;20713;-61
2022/12/12 15:15:50;;;;;;;29.73;25.90;;;1.20;99.90;;;;;;6217959;23;20932;-60
2022/12/12 15:18:20;;;;;;;32.90;26.47;;;1.20;99.90;;;;;;6217188;23;20927;-60
2022/12/12 15:20:48;;;;;;;31.83;26.07;;;1.10;99.90;;;;;;6218035;23;20432;-61
2022/12/12 15:23:19;;;;;;;34.10;26.97;;;1.00;99.90;;;;;;6217731;23;20412;-61
2022/12/12 15:25:52;;;;;;;28.90;25.73;;;1.10;99.90;;;;;;6218125;23;20466;-61
2022/12/12 15:28:21;;;;;;;29.23;25.73;;;1.20;99.90;;;;;;6216947;23;20857;-62
2022/12/12 15:30:51;;;;;;;29.00;25.90;;;1.30;99.90;;;;;;6218723;23;20435;-63
2022/12/12 15:33:19;;;;;;;28.67;25.60;;;1.40;99.90;;;;;;6219253;23;20753;-63
2022/12/12 15:35:51;;;;;;;31.43;25.60;;;1.50;99.90;;;;;;6217260;23;20411;-63
2022/12/12 15:38:17;;;;;;;26.93;23.87;;;1.50;99.90;;;;;;6217698;23;20866;-63
2022/12/12 15:40:49;;;;;;;28.00;25.10;;;1.50;99.90;;;;;;6217474;23;20432;-65
2022/12/12 15:43:19;;;;;;;27.43;24.50;;;1.40;99.90;;;;;;6217407;23;20396;-64
2022/12/12 15:45:50;;;;;;;29.50;25.60;;;1.40;99.90;;;;;;6218622;23;20403;-66
2022/12/12 15:48:19;;;;;;;25.70;23.10;;;1.30;99.90;;;;;;6219667;23;20455;-63
2022/12/12 15:50:58;;;;;;;27.20;24.40;;;1.20;99.90;;;;;;6218816;23;20431;-62
2022/12/12 15:53:26;;;;;;;26.97;23.73;;;1.10;99.90;;;;;;6220277;23;20396;-62
2022/12/12 15:56:01;;;;;;;27.53;23.83;;;1.10;99.90;;;;;;6217068;23;20418;-62
2022/12/12 15:58:31;;;;;;;27.47;23.13;;;0.90;99.90;;;;;;6216907;23;20927;-64
2022/12/12 16:01:07;;;;;;;28.17;24.07;;;0.90;99.90;;;;;;6216650;23;20436;-64
2022/12/12 16:03:34;;;;;;;28.63;23.83;;;0.80;99.90;;;;;;6216873;23;20439;-64
2022/12/12 16:06:13;;;;;;;27.53;24.60;;;0.80;99.90;;;;;;6217339;23;20438;-64
2022/12/12 16:08:48;;;;;;;25.33;22.47;;;0.70;99.90;;;;;;6216983;23;20396;-64
2022/12/12 16:11:40;;;;;;;30.37;23.93;;;0.60;99.90;;;;;;6216541;23;20432;-64
2022/12/12 16:14:28;;;;;;;33.87;24.47;;;0.50;99.90;;;;;;6187947;23;20958;-64
2022/12/12 16:16:58;;;;;;;29.07;24.07;;;0.40;99.90;;;;;;6217707;23;20439;-64
2022/12/12 16:19:37;;;;;;;28.33;24.43;;;0.30;99.90;;;;;;6218916;23;20408;-64
2022/12/12 16:22:12;;;;;;;28.37;24.60;;;0.20;99.90;;;;;;6217476;23;20795;-64
2022/12/12 16:24:46;;;;;;;31.50;23.77;;;0.20;99.90;;;;;;6217158;23;20396;-65
2022/12/12 16:27:13;;;;;;;27.07;23.30;;;0.20;99.90;;;;;;6217603;23;20423;-64
2022/12/12 16:29:39;;;;;;;31.53;25.10;;;0.20;99.90;;;;;;6217126;23;20411;-64
2022/12/12 16:32:06;;;;;;;27.90;23.77;;;0.10;99.90;;;;;;6217909;23;20486;-65
2022/12/12 16:34:33;;;;;;;29.60;24.30;;;0.00;99.90;;;;;;6217461;23;20439;-65
2022/12/12 16:36:59;;;;;;;32.00;24.67;;;0.00;99.90;;;;;;6216728;23;20443;-65
2022/12/12 16:39:28;;;;;;;31.20;24.50;;;0.00;99.90;;;;;;6216869;23;20462;-66
2022/12/12 16:41:54;;;;;;;34.33;25.00;;;0.00;99.90;;;;;;6217289;23;20432;-66
2022/12/12 16:44:21;;;;;;;31.77;25.37;;;0.00;99.90;;;;;;6217624;23;20416;-65
2022/12/12 16:46:48;;;;;;;37.37;27.73;;;-0.10;99.90;;;;;;6217983;23;20462;-65
2022/12/12 16:49:15;;;;;;;34.63;26.60;;;-0.10;99.90;;;;;;6222011;23;20414;-67
2022/12/12 16:51:41;;;;;;;32.30;24.53;;;-0.10;99.90;;;;;;6222980;23;20432;-66
2022/12/12 16:54:14;;;;;;;30.97;25.40;;;-0.20;99.90;;;;;;6219392;23;20461;-65
2022/12/12 16:56:42;;;;;;;30.37;24.73;;;-0.20;99.90;;;;;;6217908;23;20470;-64
2022/12/12 16:59:09;;;;;;;29.90;25.63;;;-0.20;99.90;;;;;;6215876;23;20414;-63
2022/12/12 17:01:36;;;;;;;29.37;25.93;;;-0.20;99.90;;;;;;6216555;23;20248;-63
2022/12/12 17:04:02;;;;;;;31.10;24.77;;;-0.20;99.90;;;;;;6217203;23;20416;-63
2022/12/12 17:06:29;;;;;;;33.03;25.30;;;-0.20;99.90;;;;;;6217549;23;20442;-63
2022/12/12 17:08:56;;;;;;;28.73;24.97;;;-0.20;99.90;;;;;;6226898;23;20470;-63
2022/12/12 17:11:22;;;;;;;29.23;23.93;;;-0.30;99.90;;;;;;6230228;23;20439;-63
2022/12/12 17:13:50;;;;;;;30.90;24.10;;;-0.30;99.90;;;;;;6228970;23;20462;-66
2022/12/12 17:16:17;;;;;;;26.03;23.20;;;-0.30;99.90;;;;;;6221338;23;20411;-66
2022/12/12 17:18:44;;;;;;;31.53;24.63;;;-0.40;99.90;;;;;;6219449;23;20435;-63
2022/12/12 17:21:10;;;;;;;25.80;23.10;;;-0.40;99.90;;;;;;6216884;23;20482;-64
2022/12/12 17:23:37;;;;;;;28.60;23.50;;;-0.40;99.90;;;;;;6216455;23;20470;-65
2022/12/12 17:26:04;;;;;;;29.43;24.83;;;-0.40;99.90;;;;;;6216165;23;20477;-64
2022/12/12 17:28:32;;;;;;;27.63;24.17;;;-0.50;99.90;;;;;;6216232;23;20442;-64
2022/12/12 17:31:01;;;;;;;29.87;24.17;;;-0.50;99.90;;;;;;6216770;23;20431;-65
2022/12/12 17:33:27;;;;;;;28.80;25.20;;;0.10;99.90;;;;;;6216969;23;20465;-63
2022/12/12 17:35:59;;;;;;;28.93;25.83;;;0.40;99.90;;;;;;6218366;23;20412;-63
2022/12/12 17:38:26;;;;;;;26.90;24.10;;;0.60;99.90;;;;;;6217452;23;20933;-61
2022/12/12 17:40:55;;;;;;;28.83;25.03;;;0.60;99.90;;;;;;6217448;23;20435;-63
2022/12/12 17:43:22;;;;;;;28.40;23.40;;;0.50;99.90;;;;;;6217453;23;20441;-62
2022/12/12 17:45:57;;;;;;;29.03;22.50;;;0.40;99.90;;;;;;6216467;23;20439;-64
2022/12/12 17:48:27;;;;;;;29.83;23.90;;;0.20;99.90;;;;;;6217865;23;20928;-63
2022/12/12 17:50:59;;;;;;;26.60;22.90;;;0.10;99.90;;;;;;6218180;23;20936;-63
2022/12/12 17:53:30;;;;;;;25.13;21.83;;;0.00;99.90;;;;;;6218515;23;20408;-63